Terminal Aerodrome Forecast
Issued by NWS Cleveland, OH

Home | Current Version | Previous Version | Graphics & Text | Print | Product List | Glossary On
Versions: 1 2 3 4 5 6 7 8 9 10 11 12 13 14 15 16 17 18 19 20 21 22 23 24 25 26
121
FTUS41 KCLE 120533
TAFERI
TAF
KERI 120533Z 1206/1306 16006KT P6SM -SHSN OVC035
     FM120800 VRB05KT 5SM -SN SCT015 OVC035
     FM121000 28010KT 1SM -SN BKN008 OVC015
     FM121400 30015G25KT 5SM -SHSN OVC015
     FM121900 30020G30KT 1 1/2SM -SHSN SCT008 OVC012=

USA.gov is the U.S. government's official web portal to all federal, state and local government web resources and services.